createdAt,value
2024-02-01T00:01:53.573Z,2.47
2024-02-01T00:04:22.308Z,2.46
2024-02-01T00:06:49.712Z,2.70
2024-02-01T00:09:18.249Z,2.66
2024-02-01T00:11:45.088Z,2.67
2024-02-01T00:14:12.389Z,2.53
2024-02-01T00:16:39.161Z,2.48
2024-02-01T00:19:06.387Z,2.53
2024-02-01T00:21:34.482Z,2.50
2024-02-01T00:24:01.335Z,2.52
2024-02-01T00:26:30.223Z,2.53
2024-02-01T00:29:17.523Z,2.80
2024-02-01T00:31:44.335Z,3.02
2024-02-01T00:34:11.432Z,2.80
2024-02-01T00:36:38.382Z,3.02
2024-02-01T00:39:06.177Z,2.69
2024-02-01T00:41:33.479Z,2.53
2024-02-01T00:44:00.291Z,2.56
2024-02-01T00:46:27.628Z,2.37
2024-02-01T00:48:54.512Z,2.44
2024-02-01T00:51:21.464Z,2.50
2024-02-01T00:53:54.909Z,2.56
2024-02-01T00:56:23.078Z,3.03
2024-02-01T00:58:50.415Z,2.89
2024-02-01T01:01:18.239Z,2.84
2024-02-01T01:03:46.390Z,2.83
2024-02-01T01:06:32.850Z,2.77
2024-02-01T01:08:59.768Z,2.90
2024-02-01T01:11:27.627Z,2.89
2024-02-01T01:13:54.759Z,2.61
2024-02-01T01:16:21.768Z,2.51
2024-02-01T01:18:48.777Z,2.44
2024-02-01T01:21:16.481Z,2.65
2024-02-01T01:23:43.798Z,2.62
2024-02-01T01:26:11.767Z,2.43
2024-02-01T01:28:39.775Z,2.67
2024-02-01T01:31:07.870Z,2.74
2024-02-01T01:33:35.001Z,2.67
2024-02-01T01:36:02.160Z,3.24
2024-02-01T01:38:29.414Z,3.44
2024-02-01T01:41:09.206Z,2.55
2024-02-01T01:43:37.111Z,2.52
2024-02-01T01:46:04.550Z,2.36
2024-02-01T01:48:34.187Z,2.24
2024-02-01T01:51:01.695Z,2.18
2024-02-01T01:53:31.751Z,2.42
2024-02-01T01:55:58.893Z,2.49
2024-02-01T01:58:27.658Z,2.50
2024-02-01T02:00:58.739Z,2.56
2024-02-01T02:03:26.633Z,2.58
2024-02-01T02:05:54.660Z,2.70
2024-02-01T02:08:22.070Z,2.66
2024-02-01T02:10:49.458Z,2.85
2024-02-01T02:13:16.363Z,3.46
2024-02-01T02:15:44.746Z,2.36
2024-02-01T02:18:13.204Z,2.28
2024-02-01T02:20:41.349Z,2.31
2024-02-01T02:23:08.165Z,2.29
2024-02-01T02:25:35.514Z,2.04
2024-02-01T02:28:02.350Z,2.10
2024-02-01T02:30:29.815Z,2.27
2024-02-01T02:32:57.574Z,2.35
2024-02-01T02:35:24.837Z,2.42
2024-02-01T02:37:52.380Z,2.37
2024-02-01T02:40:20.584Z,2.46
2024-02-01T02:42:47.995Z,2.46
2024-02-01T02:45:14.936Z,2.51
2024-02-01T02:47:42.572Z,2.66
2024-02-01T02:50:10.516Z,2.66
2024-02-01T02:52:39.489Z,2.57
2024-02-01T02:55:07.000Z,2.79
2024-02-01T02:57:37.096Z,3.06
2024-02-01T03:00:11.430Z,2.88
2024-02-01T03:02:41.759Z,2.88
2024-02-01T03:05:08.727Z,3.07
2024-02-01T03:07:35.877Z,3.05
2024-02-01T03:10:04.506Z,3.18
2024-02-01T03:12:31.713Z,3.53
2024-02-01T03:14:59.115Z,3.19
2024-02-01T03:17:27.087Z,3.46
2024-02-01T03:19:54.360Z,3.31
2024-02-01T03:22:22.244Z,3.24
2024-02-01T03:24:50.307Z,3.11
2024-02-01T03:27:18.297Z,3.20
2024-02-01T03:29:45.555Z,3.46
2024-02-01T03:32:15.293Z,3.64
2024-02-01T03:34:42.591Z,3.70
2024-02-01T03:37:09.632Z,3.52
2024-02-01T03:39:36.874Z,3.42
2024-02-01T03:42:04.449Z,3.71
2024-02-01T03:44:31.272Z,4.42
2024-02-01T03:46:58.446Z,3.97
2024-02-01T03:49:26.928Z,3.42
2024-02-01T03:51:54.179Z,3.32
2024-02-01T03:54:21.391Z,3.82
2024-02-01T03:56:48.577Z,3.43
2024-02-01T03:59:15.868Z,3.57
2024-02-01T04:01:43.153Z,3.66
2024-02-01T04:04:11.051Z,3.48
2024-02-01T04:06:38.150Z,3.44
2024-02-01T04:09:06.252Z,3.64
2024-02-01T04:11:34.621Z,3.98
2024-02-01T04:14:02.339Z,4.37
2024-02-01T04:16:31.954Z,3.20
2024-02-01T04:18:59.290Z,3.46
2024-02-01T04:21:26.696Z,3.51
2024-02-01T04:23:53.698Z,3.42
2024-02-01T04:26:20.813Z,3.38
2024-02-01T04:28:48.651Z,3.34
2024-02-01T04:31:15.599Z,3.24
2024-02-01T04:33:42.966Z,3.19
2024-02-01T04:36:10.347Z,3.50
2024-02-01T04:38:38.706Z,3.62
2024-02-01T04:41:05.712Z,3.69
2024-02-01T04:43:32.581Z,3.76
2024-02-01T04:46:02.105Z,3.75
2024-02-01T04:48:29.227Z,3.63
2024-02-01T04:50:56.244Z,3.73
2024-02-01T04:53:24.966Z,3.73
2024-02-01T04:55:52.152Z,3.77
2024-02-01T04:58:20.868Z,3.67
2024-02-01T05:01:26.708Z,3.84
2024-02-01T05:03:54.636Z,3.72
2024-02-01T05:06:21.744Z,3.83
2024-02-01T05:08:49.186Z,3.95
2024-02-01T05:11:18.235Z,4.57
2024-02-01T05:13:45.161Z,5.01
2024-02-01T05:16:12.755Z,5.00
2024-02-01T05:18:42.553Z,4.20
2024-02-01T05:21:09.566Z,3.79
2024-02-01T05:23:37.475Z,3.59
2024-02-01T05:26:04.509Z,3.68
2024-02-01T05:28:32.978Z,3.91
2024-02-01T05:31:00.144Z,3.92
2024-02-01T05:33:27.015Z,3.93
2024-02-01T05:35:55.088Z,4.09
2024-02-01T05:38:23.366Z,4.14
2024-02-01T05:40:50.118Z,4.02
2024-02-01T05:43:18.275Z,3.86
2024-02-01T05:45:45.040Z,4.00
2024-02-01T05:48:11.934Z,4.28
2024-02-01T05:50:39.933Z,4.38
2024-02-01T05:53:07.492Z,4.46
2024-02-01T05:55:37.102Z,4.83
2024-02-01T05:58:05.499Z,4.94
2024-02-01T06:00:33.671Z,5.03
2024-02-01T06:03:00.583Z,4.61
2024-02-01T06:05:28.161Z,4.64
2024-02-01T06:07:56.868Z,4.59
2024-02-01T06:10:24.088Z,4.05
2024-02-01T06:12:51.339Z,4.55
2024-02-01T06:15:18.828Z,4.42
2024-02-01T06:17:46.973Z,3.88
2024-02-01T06:20:14.297Z,3.68
2024-02-01T06:22:41.251Z,4.33
2024-02-01T06:25:08.762Z,3.58
2024-02-01T06:27:35.613Z,3.40
2024-02-01T06:30:03.290Z,4.05
2024-02-01T06:32:30.667Z,3.72
2024-02-01T06:34:57.883Z,3.33
2024-02-01T06:37:26.182Z,3.32
2024-02-01T06:39:55.016Z,3.28
2024-02-01T06:42:23.370Z,3.54
2024-02-01T06:44:51.514Z,3.29
2024-02-01T06:47:18.355Z,3.17
2024-02-01T06:49:46.300Z,3.34
2024-02-01T06:52:13.619Z,3.96
2024-02-01T06:55:03.516Z,3.51
2024-02-01T06:57:33.452Z,3.33
2024-02-01T07:00:00.528Z,3.28
2024-02-01T07:02:29.066Z,3.41
2024-02-01T07:04:56.354Z,3.52
2024-02-01T07:07:23.320Z,3.84
2024-02-01T07:09:50.924Z,3.75
2024-02-01T07:12:18.680Z,3.66
2024-02-01T07:14:48.415Z,3.60
2024-02-01T07:17:16.492Z,3.66
2024-02-01T07:19:44.449Z,3.72
2024-02-01T07:22:14.142Z,3.75
2024-02-01T07:24:41.485Z,3.92
2024-02-01T07:27:11.372Z,4.04
2024-02-01T07:29:39.383Z,4.23
2024-02-01T07:32:06.812Z,4.78
2024-02-01T07:34:33.664Z,4.85
2024-02-01T07:37:01.074Z,5.04
2024-02-01T07:39:28.126Z,5.08
2024-02-01T07:41:55.325Z,5.04
2024-02-01T07:44:22.516Z,4.94
2024-02-01T07:46:52.492Z,5.57
2024-02-01T07:49:19.451Z,6.07
2024-02-01T07:51:46.550Z,5.76
2024-02-01T07:54:13.730Z,5.30
2024-02-01T07:56:40.849Z,5.61
2024-02-01T07:59:07.675Z,5.97
2024-02-01T08:01:34.629Z,6.05
2024-02-01T08:04:02.130Z,5.81
2024-02-01T08:06:29.613Z,6.11
2024-02-01T08:08:56.926Z,6.05
2024-02-01T08:11:23.994Z,6.52
2024-02-01T08:13:51.089Z,6.77
2024-02-01T08:16:18.234Z,6.03
2024-02-01T08:18:47.032Z,7.04
2024-02-01T08:21:14.756Z,5.82
2024-02-01T08:23:42.615Z,5.97
2024-02-01T08:26:11.007Z,6.03
2024-02-01T08:28:38.336Z,5.95
2024-02-01T08:31:05.537Z,5.60
2024-02-01T08:33:33.578Z,5.90
2024-02-01T08:36:03.640Z,5.56
2024-02-01T08:38:32.092Z,5.46
2024-02-01T08:41:01.922Z,5.45
2024-02-01T08:43:30.587Z,5.48
2024-02-01T08:45:58.419Z,5.45
2024-02-01T08:48:25.866Z,5.85
2024-02-01T08:50:54.045Z,6.33
2024-02-01T08:53:20.908Z,6.11
2024-02-01T08:55:48.170Z,6.07
2024-02-01T08:58:16.259Z,6.19
2024-02-01T09:00:43.700Z,6.39
2024-02-01T09:03:11.798Z,6.00
2024-02-01T09:05:39.992Z,6.21
2024-02-01T09:08:11.105Z,6.31
2024-02-01T09:10:38.020Z,6.77
2024-02-01T09:13:05.866Z,7.17
2024-02-01T09:15:33.947Z,6.89
2024-02-01T09:18:02.185Z,6.95
2024-02-01T09:20:29.935Z,6.76
2024-02-01T09:22:59.821Z,7.59
2024-02-01T09:25:27.073Z,7.78
2024-02-01T09:27:54.222Z,7.75
2024-02-01T09:30:24.565Z,7.54
2024-02-01T09:32:51.706Z,7.43
2024-02-01T09:37:46.886Z,7.45
2024-02-01T09:40:13.666Z,7.89
2024-02-01T09:42:40.622Z,8.37
2024-02-01T09:45:08.688Z,8.12
2024-02-01T09:47:36.771Z,8.38
2024-02-01T09:50:03.799Z,8.32
2024-02-01T09:52:30.786Z,7.03
2024-02-01T09:54:58.129Z,7.60
2024-02-01T09:57:25.054Z,6.98
2024-02-01T09:59:53.520Z,7.30
2024-02-01T10:02:22.466Z,6.78
2024-02-01T10:04:50.121Z,6.92
2024-02-01T10:07:16.932Z,6.97
2024-02-01T10:09:44.885Z,6.91
2024-02-01T10:12:12.627Z,7.10
2024-02-01T10:14:40.173Z,7.44
2024-02-01T10:17:07.269Z,7.99
2024-02-01T10:19:34.744Z,8.43
2024-02-01T10:22:11.701Z,8.01
2024-02-01T10:24:39.768Z,8.32
2024-02-01T10:27:06.866Z,8.67
2024-02-01T10:29:34.125Z,8.87
2024-02-01T10:32:02.721Z,8.03
2024-02-01T10:34:30.133Z,7.77
2024-02-01T10:36:57.534Z,8.72
2024-02-01T10:39:24.436Z,9.39
2024-02-01T10:41:53.746Z,9.80
2024-02-01T10:44:22.190Z,9.94
2024-02-01T10:46:52.486Z,9.64
2024-02-01T10:49:21.360Z,9.55
2024-02-01T10:51:48.894Z,9.71
2024-02-01T10:54:16.030Z,10.05
2024-02-01T10:56:43.256Z,9.04
2024-02-01T10:59:10.025Z,9.68
2024-02-01T11:01:37.574Z,9.90
2024-02-01T11:04:06.654Z,7.87
2024-02-01T11:10:27.821Z,6.74
2024-02-01T11:12:56.069Z,7.41
2024-02-01T11:15:29.699Z,7.38
2024-02-01T11:17:57.181Z,7.82
2024-02-01T11:20:25.369Z,8.30
2024-02-01T11:22:57.500Z,8.68
2024-02-01T11:25:28.781Z,9.02
2024-02-01T11:27:55.678Z,8.36
2024-02-01T11:30:26.535Z,9.19
2024-02-01T11:32:56.391Z,9.54
2024-02-01T11:38:09.383Z,9.64
2024-02-01T11:40:38.298Z,9.89
2024-02-01T11:43:05.107Z,9.70
2024-02-01T11:45:32.140Z,9.49
2024-02-01T11:47:59.350Z,9.16
2024-02-01T11:50:27.829Z,9.71
2024-02-01T11:52:58.819Z,9.31
2024-02-01T11:55:27.640Z,9.96
2024-02-01T11:57:54.555Z,10.19
2024-02-01T12:00:28.853Z,10.32
2024-02-01T12:03:06.755Z,9.38
2024-02-01T12:05:34.150Z,7.64
2024-02-01T12:08:04.085Z,7.31
2024-02-01T12:10:31.271Z,7.51
2024-02-01T12:12:58.871Z,7.57
2024-02-01T12:15:26.286Z,7.11
2024-02-01T12:17:53.656Z,7.40
2024-02-01T12:20:20.546Z,8.27
2024-02-01T12:22:49.249Z,8.11
2024-02-01T12:25:17.439Z,7.94
2024-02-01T12:27:45.124Z,8.31
2024-02-01T12:30:13.377Z,8.83
2024-02-01T12:32:43.648Z,8.98
2024-02-01T12:35:14.447Z,8.76
2024-02-01T12:37:42.969Z,9.42
2024-02-01T12:40:18.579Z,9.60
2024-02-01T12:42:45.403Z,9.43
2024-02-01T12:45:12.648Z,9.76
2024-02-01T12:47:39.484Z,10.10
2024-02-01T12:50:07.634Z,8.88
2024-02-01T12:52:35.884Z,7.51
2024-02-01T12:55:02.686Z,7.05
2024-02-01T12:57:30.534Z,6.90
2024-02-01T12:59:57.354Z,7.17
2024-02-01T13:02:24.889Z,7.17
2024-02-01T13:04:52.691Z,7.51
2024-02-01T13:07:22.056Z,7.96
2024-02-01T13:09:49.433Z,8.54
2024-02-01T13:12:16.295Z,8.55
2024-02-01T13:14:43.150Z,8.51
2024-02-01T13:17:10.531Z,9.22
2024-02-01T13:19:37.531Z,9.85
2024-02-01T13:22:06.601Z,10.26
2024-02-01T13:24:33.426Z,10.49
2024-02-01T13:27:00.730Z,10.45
2024-02-01T13:29:27.653Z,10.87
2024-02-01T13:32:11.710Z,10.94
2024-02-01T13:34:41.814Z,10.53
2024-02-01T13:37:11.527Z,10.10
2024-02-01T13:39:44.393Z,9.97
2024-02-01T13:42:13.007Z,9.38
2024-02-01T13:44:39.986Z,10.31
2024-02-01T13:47:10.010Z,10.67
2024-02-01T13:49:37.063Z,10.86
2024-02-01T13:52:05.515Z,10.28
2024-02-01T13:54:32.784Z,10.70
2024-02-01T13:57:01.847Z,10.85
2024-02-01T13:59:28.602Z,8.54
2024-02-01T14:01:55.473Z,7.97
2024-02-01T14:04:22.735Z,8.37
2024-02-01T14:06:49.548Z,8.34
2024-02-01T14:09:16.929Z,7.75
2024-02-01T14:11:43.784Z,8.04
2024-02-01T14:14:10.652Z,7.84
2024-02-01T14:16:43.075Z,7.76
2024-02-01T14:19:10.067Z,7.68
2024-02-01T14:21:37.075Z,7.51
2024-02-01T14:24:04.907Z,7.40
2024-02-01T14:26:31.829Z,7.53
2024-02-01T14:28:58.636Z,7.79
2024-02-01T14:31:25.929Z,8.80
2024-02-01T14:33:53.347Z,8.39
2024-02-01T14:36:20.296Z,8.91
2024-02-01T14:38:47.708Z,9.16
2024-02-01T14:41:14.605Z,8.88
2024-02-01T14:43:41.462Z,9.46
2024-02-01T14:46:08.731Z,10.06
2024-02-01T14:48:35.959Z,10.08
2024-02-01T14:51:03.571Z,10.35
2024-02-01T14:53:32.213Z,10.40
2024-02-01T14:55:59.451Z,10.24
2024-02-01T14:58:26.491Z,10.49
2024-02-01T15:00:53.370Z,9.64
2024-02-01T15:06:02.650Z,10.74
2024-02-01T15:08:29.460Z,11.25
2024-02-01T15:11:32.577Z,11.37
2024-02-01T15:14:01.161Z,11.22
2024-02-01T15:16:29.112Z,11.64
2024-02-01T15:18:55.936Z,11.92
2024-02-01T15:21:23.919Z,12.11
2024-02-01T15:23:51.332Z,12.23
2024-02-01T15:26:18.626Z,12.25
2024-02-01T15:28:45.483Z,12.32
2024-02-01T15:31:12.345Z,12.14
2024-02-01T15:33:39.583Z,11.93
2024-02-01T15:36:08.112Z,11.17
2024-02-01T15:38:38.590Z,10.45
2024-02-01T15:41:05.420Z,10.46
2024-02-01T15:43:32.375Z,10.57
2024-02-01T15:45:59.498Z,10.37
2024-02-01T15:48:27.737Z,10.47
2024-02-01T15:50:56.089Z,10.83
2024-02-01T15:53:23.071Z,11.12
2024-02-01T15:55:50.207Z,11.34
2024-02-01T15:58:17.308Z,11.57
2024-02-01T16:00:44.111Z,11.72
2024-02-01T16:03:11.484Z,11.73
2024-02-01T16:06:11.025Z,11.79
2024-02-01T16:08:51.171Z,11.69
2024-02-01T16:11:19.552Z,11.86
2024-02-01T16:13:49.112Z,10.66
2024-02-01T16:16:44.191Z,10.58
2024-02-01T16:19:23.441Z,10.92
2024-02-01T16:21:50.504Z,10.98
2024-02-01T16:24:40.857Z,11.54
2024-02-01T16:27:30.371Z,11.73
2024-02-01T16:30:20.285Z,11.80
2024-02-01T16:32:49.948Z,11.15
2024-02-01T16:35:47.478Z,9.52
2024-02-01T16:38:17.000Z,9.56
2024-02-01T16:40:43.843Z,9.27
2024-02-01T16:43:10.958Z,8.39
2024-02-01T16:45:38.819Z,8.21
2024-02-01T16:48:11.756Z,7.90
2024-02-01T16:50:46.187Z,7.69
2024-02-01T16:53:25.804Z,7.71
2024-02-01T16:55:55.798Z,7.70
2024-02-01T16:58:52.248Z,7.60
2024-02-01T17:01:41.434Z,7.55
2024-02-01T17:04:13.925Z,7.44
2024-02-01T17:06:40.949Z,7.46
2024-02-01T17:09:07.911Z,7.53
2024-02-01T17:11:35.377Z,7.52
2024-02-01T17:14:08.054Z,7.57
2024-02-01T17:16:57.282Z,7.55
2024-02-01T17:19:24.571Z,7.61
2024-02-01T17:21:52.010Z,7.65
2024-02-01T17:24:23.088Z,7.67
2024-02-01T17:26:50.507Z,7.50
2024-02-01T17:29:18.746Z,7.42
2024-02-01T17:31:51.496Z,7.38
2024-02-01T17:34:26.707Z,7.44
2024-02-01T17:36:55.953Z,7.48
2024-02-01T17:40:06.416Z,7.58
2024-02-01T17:42:37.972Z,7.59
2024-02-01T17:45:24.331Z,7.62
2024-02-01T17:48:01.854Z,8.06
2024-02-01T17:50:38.458Z,8.35
2024-02-01T17:53:44.437Z,7.70
2024-02-01T17:56:17.978Z,7.46
2024-02-01T17:58:44.742Z,7.33
2024-02-01T18:01:24.403Z,7.72
2024-02-01T18:03:57.110Z,8.52
2024-02-01T18:06:42.405Z,9.10
2024-02-01T18:09:33.333Z,7.60
2024-02-01T18:12:02.407Z,7.65
2024-02-01T18:14:33.423Z,8.53
2024-02-01T18:17:01.351Z,9.25
2024-02-01T18:19:29.804Z,9.75
2024-02-01T18:21:56.755Z,9.97
2024-02-01T18:24:40.071Z,9.52
2024-02-01T18:27:08.547Z,8.36
2024-02-01T18:29:54.495Z,9.10
2024-02-01T18:32:21.744Z,8.40
2024-02-01T18:34:48.967Z,9.01
2024-02-01T18:37:16.277Z,8.31
2024-02-01T18:39:43.616Z,7.75
2024-02-01T18:42:38.130Z,7.50
2024-02-01T18:45:36.124Z,7.27
2024-02-01T18:48:03.379Z,7.29
2024-02-01T18:50:35.051Z,7.24
2024-02-01T18:53:02.038Z,8.08
2024-02-01T18:55:37.662Z,7.86
2024-02-01T18:58:05.429Z,7.75
2024-02-01T19:00:41.356Z,7.89
2024-02-01T19:03:32.458Z,7.50
2024-02-01T19:06:25.891Z,7.16
2024-02-01T19:08:55.633Z,7.25
2024-02-01T19:11:23.882Z,7.30
2024-02-01T19:14:03.181Z,7.43
2024-02-01T19:16:30.809Z,7.57
2024-02-01T19:19:01.784Z,7.44
2024-02-01T19:21:31.746Z,7.39
2024-02-01T19:24:00.258Z,7.61
2024-02-01T19:26:28.271Z,7.56
2024-02-01T19:28:57.108Z,7.60
2024-02-01T19:31:24.271Z,7.60
2024-02-01T19:34:02.037Z,7.52
2024-02-01T19:36:34.474Z,7.65
2024-02-01T19:39:09.110Z,7.63
2024-02-01T19:41:41.079Z,7.77
2024-02-01T19:44:09.672Z,7.66
2024-02-01T19:46:37.069Z,7.74
2024-02-01T19:49:07.493Z,7.78
2024-02-01T19:51:35.357Z,7.70
2024-02-01T19:54:02.336Z,7.75
2024-02-01T19:56:29.888Z,7.81
2024-02-01T19:58:57.262Z,7.75
2024-02-01T20:04:42.545Z,7.89
2024-02-01T20:07:12.321Z,7.81
2024-02-01T20:09:39.578Z,7.80
2024-02-01T20:12:06.927Z,7.92
2024-02-01T20:14:35.673Z,7.86
2024-02-01T20:17:05.876Z,7.89
2024-02-01T20:19:33.329Z,7.86
2024-02-01T20:22:01.548Z,7.87
2024-02-01T20:24:29.739Z,7.90
2024-02-01T20:26:56.977Z,7.89
2024-02-01T20:29:24.123Z,7.75
2024-02-01T20:31:51.296Z,7.77
2024-02-01T20:34:38.650Z,7.82
2024-02-01T20:37:08.818Z,7.84
2024-02-01T20:39:36.668Z,7.84
2024-02-01T20:42:18.603Z,7.88
2024-02-01T20:44:46.656Z,7.78
2024-02-01T20:47:20.286Z,7.84
2024-02-01T20:49:59.545Z,7.84
2024-02-01T20:52:35.926Z,7.90
2024-02-01T20:55:06.208Z,7.90
2024-02-01T20:57:43.118Z,7.94
2024-02-01T21:00:26.185Z,7.77
2024-02-01T21:03:24.147Z,7.70
2024-02-01T21:06:16.211Z,7.85
2024-02-01T21:22:48.539Z,8.13
2024-02-01T21:25:37.613Z,8.02
2024-02-01T21:28:06.913Z,8.24
2024-02-01T21:30:34.598Z,8.32
2024-02-01T21:33:01.949Z,8.53
2024-02-01T21:35:50.293Z,8.99
2024-02-01T21:38:17.366Z,8.46
2024-02-01T21:40:44.282Z,8.98
2024-02-01T21:43:17.659Z,9.63
2024-02-01T21:45:51.758Z,9.80
2024-02-01T21:48:19.329Z,10.40
2024-02-01T21:50:46.735Z,10.36
2024-02-01T21:53:16.332Z,10.64
2024-02-01T21:55:43.457Z,10.79
2024-02-01T21:58:11.909Z,11.02
2024-02-01T22:00:38.834Z,11.02
2024-02-01T22:03:05.728Z,11.16
2024-02-01T22:05:32.680Z,10.10
2024-02-01T22:08:01.418Z,8.22
2024-02-01T22:10:29.116Z,8.31
2024-02-01T22:12:56.501Z,7.96
2024-02-01T22:15:23.442Z,7.80
2024-02-01T22:17:50.458Z,7.75
2024-02-01T22:20:17.343Z,7.75
2024-02-01T22:22:44.140Z,7.72
2024-02-01T22:25:11.143Z,7.74
2024-02-01T22:27:37.963Z,7.75
2024-02-01T22:30:07.991Z,7.70
2024-02-01T22:32:35.072Z,7.70
2024-02-01T22:35:02.284Z,7.71
2024-02-01T22:37:30.796Z,7.78
2024-02-01T22:39:57.753Z,7.70
2024-02-01T22:42:24.719Z,7.70
2024-02-01T22:44:51.720Z,7.75
2024-02-01T22:47:18.606Z,7.74
2024-02-01T22:49:45.919Z,7.93
2024-02-01T22:52:13.359Z,8.02
2024-02-01T22:54:40.621Z,7.99
2024-02-01T22:57:08.903Z,8.49
2024-02-01T22:59:36.068Z,8.68
2024-02-01T23:02:04.129Z,8.76
2024-02-01T23:04:30.982Z,8.79
2024-02-01T23:06:57.801Z,8.67
2024-02-01T23:09:25.066Z,9.14
2024-02-01T23:11:52.656Z,9.54
2024-02-01T23:14:20.216Z,9.51
2024-02-01T23:16:47.029Z,9.20
2024-02-01T23:19:14.400Z,9.54
2024-02-01T23:21:41.313Z,9.77
2024-02-01T23:24:09.444Z,8.55
2024-02-01T23:26:36.712Z,8.45
2024-02-01T23:29:03.585Z,9.25
2024-02-01T23:31:30.433Z,7.95
2024-02-01T23:33:58.631Z,7.92
2024-02-01T23:36:25.626Z,7.66
2024-02-01T23:38:52.421Z,7.68
2024-02-01T23:41:19.187Z,7.60
2024-02-01T23:43:45.999Z,7.55
2024-02-01T23:46:12.894Z,7.57
2024-02-01T23:48:39.805Z,7.56
2024-02-01T23:51:07.439Z,7.55
2024-02-01T23:53:34.486Z,7.61
2024-02-01T23:56:01.600Z,7.56
2024-02-01T23:58:28.886Z,7.63
